sensor_id;sensor_type;location;lat;lon;timestamp;P1;durP1;ratioP1;P2;durP2;ratioP2
9661;SDS011;24982;52.344;12.990;2023-11-19T00:01:41;6.13;;;5.53;;
9661;SDS011;24982;52.344;12.990;2023-11-19T00:04:43;5.63;;;5.22;;
9661;SDS011;24982;52.344;12.990;2023-11-19T00:07:45;5.53;;;5.00;;
9661;SDS011;24982;52.344;12.990;2023-11-19T00:10:48;5.57;;;5.05;;
9661;SDS011;24982;52.344;12.990;2023-11-19T00:13:52;6.57;;;5.20;;
9661;SDS011;24982;52.344;12.990;2023-11-19T00:16:53;5.95;;;5.30;;
9661;SDS011;24982;52.344;12.990;2023-11-19T00:19:55;5.82;;;5.32;;
9661;SDS011;24982;52.344;12.990;2023-11-19T00:22:57;5.93;;;5.43;;
9661;SDS011;24982;52.344;12.990;2023-11-19T00:26:01;5.60;;;5.03;;
9661;SDS011;24982;52.344;12.990;2023-11-19T00:29:07;5.55;;;5.00;;
9661;SDS011;24982;52.344;12.990;2023-11-19T00:32:09;5.32;;;4.82;;
9661;SDS011;24982;52.344;12.990;2023-11-19T00:35:11;7.10;;;4.88;;
9661;SDS011;24982;52.344;12.990;2023-11-19T00:38:14;5.18;;;4.68;;
9661;SDS011;24982;52.344;12.990;2023-11-19T00:41:16;5.28;;;4.88;;
9661;SDS011;24982;52.344;12.990;2023-11-19T00:44:19;5.75;;;5.18;;
9661;SDS011;24982;52.344;12.990;2023-11-19T00:47:22;5.68;;;5.03;;
9661;SDS011;24982;52.344;12.990;2023-11-19T00:50:23;4.97;;;4.45;;
9661;SDS011;24982;52.344;12.990;2023-11-19T00:53:25;4.82;;;4.30;;
9661;SDS011;24982;52.344;12.990;2023-11-19T00:56:27;5.28;;;4.78;;
9661;SDS011;24982;52.344;12.990;2023-11-19T00:59:31;6.32;;;4.78;;
9661;SDS011;24982;52.344;12.990;2023-11-19T01:02:33;4.88;;;4.47;;
9661;SDS011;24982;52.344;12.990;2023-11-19T01:05:35;4.95;;;4.55;;
9661;SDS011;24982;52.344;12.990;2023-11-19T01:08:37;4.90;;;4.55;;
9661;SDS011;24982;52.344;12.990;2023-11-19T01:11:39;4.85;;;4.35;;
9661;SDS011;24982;52.344;12.990;2023-11-19T01:14:43;5.22;;;4.13;;
9661;SDS011;24982;52.344;12.990;2023-11-19T01:17:45;5.05;;;4.15;;
9661;SDS011;24982;52.344;12.990;2023-11-19T01:20:47;4.40;;;4.10;;
9661;SDS011;24982;52.344;12.990;2023-11-19T01:23:48;5.90;;;4.90;;
9661;SDS011;24982;52.344;12.990;2023-11-19T01:26:50;5.13;;;4.63;;
9661;SDS011;24982;52.344;12.990;2023-11-19T01:29:55;4.68;;;4.28;;
9661;SDS011;24982;52.344;12.990;2023-11-19T01:32:57;4.60;;;4.20;;
9661;SDS011;24982;52.344;12.990;2023-11-19T01:35:59;4.50;;;4.13;;
9661;SDS011;24982;52.344;12.990;2023-11-19T01:39:01;4.20;;;3.90;;
9661;SDS011;24982;52.344;12.990;2023-11-19T01:42:04;4.32;;;3.92;;
9661;SDS011;24982;52.344;12.990;2023-11-19T01:45:08;4.55;;;3.90;;
9661;SDS011;24982;52.344;12.990;2023-11-19T01:48:15;4.00;;;3.70;;
9661;SDS011;24982;52.344;12.990;2023-11-19T01:51:17;3.70;;;3.40;;
9661;SDS011;24982;52.344;12.990;2023-11-19T01:54:19;4.38;;;3.97;;
9661;SDS011;24982;52.344;12.990;2023-11-19T01:57:21;4.35;;;3.95;;
9661;SDS011;24982;52.344;12.990;2023-11-19T02:00:25;4.40;;;4.00;;
9661;SDS011;24982;52.344;12.990;2023-11-19T02:03:28;4.30;;;3.90;;
9661;SDS011;24982;52.344;12.990;2023-11-19T02:06:30;5.45;;;4.00;;
9661;SDS011;24982;52.344;12.990;2023-11-19T02:09:34;4.00;;;3.70;;
9661;SDS011;24982;52.344;12.990;2023-11-19T02:12:38;4.22;;;3.83;;
9661;SDS011;24982;52.344;12.990;2023-11-19T02:15:44;3.55;;;3.25;;
9661;SDS011;24982;52.344;12.990;2023-11-19T02:18:46;3.40;;;3.20;;
9661;SDS011;24982;52.344;12.990;2023-11-19T02:21:48;3.63;;;3.33;;
9661;SDS011;24982;52.344;12.990;2023-11-19T02:24:51;3.45;;;3.15;;
9661;SDS011;24982;52.344;12.990;2023-11-19T02:27:58;3.85;;;3.42;;
9661;SDS011;24982;52.344;12.990;2023-11-19T02:31:02;3.38;;;3.13;;
9661;SDS011;24982;52.344;12.990;2023-11-19T02:34:05;3.17;;;2.97;;
9661;SDS011;24982;52.344;12.990;2023-11-19T02:37:07;3.38;;;3.17;;
9661;SDS011;24982;52.344;12.990;2023-11-19T02:40:10;3.47;;;3.17;;
9661;SDS011;24982;52.344;12.990;2023-11-19T02:43:15;3.60;;;3.40;;
9661;SDS011;24982;52.344;12.990;2023-11-19T02:46:18;3.33;;;3.13;;
9661;SDS011;24982;52.344;12.990;2023-11-19T02:49:20;3.50;;;3.20;;
9661;SDS011;24982;52.344;12.990;2023-11-19T02:52:22;3.47;;;3.28;;
9661;SDS011;24982;52.344;12.990;2023-11-19T02:55:25;3.90;;;3.60;;
9661;SDS011;24982;52.344;12.990;2023-11-19T02:58:31;3.75;;;3.45;;
9661;SDS011;24982;52.344;12.990;2023-11-19T03:01:34;3.78;;;3.47;;
9661;SDS011;24982;52.344;12.990;2023-11-19T03:04:36;4.03;;;3.72;;
9661;SDS011;24982;52.344;12.990;2023-11-19T03:07:40;3.78;;;3.47;;
9661;SDS011;24982;52.344;12.990;2023-11-19T03:10:43;4.47;;;4.07;;
9661;SDS011;24982;52.344;12.990;2023-11-19T03:13:47;4.88;;;4.18;;
9661;SDS011;24982;52.344;12.990;2023-11-19T03:16:49;3.90;;;3.70;;
9661;SDS011;24982;52.344;12.990;2023-11-19T03:19:51;4.80;;;4.40;;
9661;SDS011;24982;52.344;12.990;2023-11-19T03:22:53;5.05;;;4.45;;
9661;SDS011;24982;52.344;12.990;2023-11-19T03:25:55;4.80;;;4.45;;
9661;SDS011;24982;52.344;12.990;2023-11-19T03:28:59;5.82;;;5.10;;
9661;SDS011;24982;52.344;12.990;2023-11-19T03:32:01;5.63;;;4.90;;
9661;SDS011;24982;52.344;12.990;2023-11-19T03:35:04;4.80;;;4.50;;
9661;SDS011;24982;52.344;12.990;2023-11-19T03:38:07;5.00;;;4.57;;
9661;SDS011;24982;52.344;12.990;2023-11-19T03:41:10;5.43;;;5.03;;
9661;SDS011;24982;52.344;12.990;2023-11-19T03:44:14;5.13;;;4.72;;
9661;SDS011;24982;52.344;12.990;2023-11-19T03:47:16;5.03;;;4.63;;
9661;SDS011;24982;52.344;12.990;2023-11-19T03:50:18;5.20;;;4.80;;
9661;SDS011;24982;52.344;12.990;2023-11-19T03:53:21;4.75;;;4.38;;
9661;SDS011;24982;52.344;12.990;2023-11-19T03:56:24;4.57;;;4.28;;
9661;SDS011;24982;52.344;12.990;2023-11-19T03:59:28;5.03;;;4.63;;
9661;SDS011;24982;52.344;12.990;2023-11-19T04:02:30;4.93;;;4.53;;
9661;SDS011;24982;52.344;12.990;2023-11-19T04:05:32;5.07;;;4.57;;
9661;SDS011;24982;52.344;12.990;2023-11-19T04:08:34;5.07;;;4.40;;
9661;SDS011;24982;52.344;12.990;2023-11-19T04:11:36;5.18;;;4.68;;
9661;SDS011;24982;52.344;12.990;2023-11-19T04:14:41;4.97;;;4.53;;
9661;SDS011;24982;52.344;12.990;2023-11-19T04:17:44;4.82;;;4.43;;
9661;SDS011;24982;52.344;12.990;2023-11-19T04:20:46;4.72;;;4.43;;
9661;SDS011;24982;52.344;12.990;2023-11-19T04:23:48;4.95;;;4.43;;
9661;SDS011;24982;52.344;12.990;2023-11-19T04:26:51;7.68;;;4.80;;
9661;SDS011;24982;52.344;12.990;2023-11-19T04:29:54;4.90;;;4.50;;
9661;SDS011;24982;52.344;12.990;2023-11-19T04:32:56;5.75;;;4.80;;
9661;SDS011;24982;52.344;12.990;2023-11-19T04:35:58;5.50;;;5.05;;
9661;SDS011;24982;52.344;12.990;2023-11-19T04:39:00;5.00;;;4.50;;
9661;SDS011;24982;52.344;12.990;2023-11-19T04:42:03;5.38;;;4.90;;
9661;SDS011;24982;52.344;12.990;2023-11-19T04:45:08;7.00;;;4.60;;
9661;SDS011;24982;52.344;12.990;2023-11-19T04:48:11;6.03;;;4.93;;
9661;SDS011;24982;52.344;12.990;2023-11-19T04:51:13;5.68;;;4.65;;
9661;SDS011;24982;52.344;12.990;2023-11-19T04:54:15;5.18;;;4.68;;
9661;SDS011;24982;52.344;12.990;2023-11-19T04:57:17;4.82;;;4.53;;
9661;SDS011;24982;52.344;12.990;2023-11-19T05:00:20;4.75;;;4.45;;
9661;SDS011;24982;52.344;12.990;2023-11-19T05:03:23;5.10;;;4.70;;
9661;SDS011;24982;52.344;12.990;2023-11-19T05:06:26;4.53;;;4.13;;
9661;SDS011;24982;52.344;12.990;2023-11-19T05:09:30;4.80;;;4.40;;
9661;SDS011;24982;52.344;12.990;2023-11-19T05:12:33;5.22;;;4.72;;
9661;SDS011;24982;52.344;12.990;2023-11-19T05:15:36;4.30;;;4.00;;
9661;SDS011;24982;52.344;12.990;2023-11-19T05:18:38;4.80;;;4.40;;
9661;SDS011;24982;52.344;12.990;2023-11-19T05:21:41;7.82;;;4.50;;
9661;SDS011;24982;52.344;12.990;2023-11-19T05:24:43;4.70;;;4.30;;
9661;SDS011;24982;52.344;12.990;2023-11-19T05:27:45;4.88;;;4.47;;
9661;SDS011;24982;52.344;12.990;2023-11-19T05:30:48;4.90;;;4.60;;
9661;SDS011;24982;52.344;12.990;2023-11-19T05:33:50;4.72;;;4.40;;
9661;SDS011;24982;52.344;12.990;2023-11-19T05:36:52;4.90;;;4.50;;
9661;SDS011;24982;52.344;12.990;2023-11-19T05:39:54;5.43;;;4.65;;
9661;SDS011;24982;52.344;12.990;2023-11-19T05:42:56;5.20;;;4.78;;
9661;SDS011;24982;52.344;12.990;2023-11-19T05:46:00;5.00;;;4.50;;
9661;SDS011;24982;52.344;12.990;2023-11-19T05:49:02;5.30;;;4.90;;
9661;SDS011;24982;52.344;12.990;2023-11-19T05:52:04;5.00;;;4.60;;
9661;SDS011;24982;52.344;12.990;2023-11-19T05:55:07;4.82;;;4.35;;
9661;SDS011;24982;52.344;12.990;2023-11-19T05:58:10;5.22;;;4.72;;
9661;SDS011;24982;52.344;12.990;2023-11-19T06:01:14;4.85;;;4.45;;
9661;SDS011;24982;52.344;12.990;2023-11-19T06:04:17;5.38;;;4.60;;
9661;SDS011;24982;52.344;12.990;2023-11-19T06:07:19;4.88;;;4.47;;
9661;SDS011;24982;52.344;12.990;2023-11-19T06:10:21;5.43;;;4.93;;
9661;SDS011;24982;52.344;12.990;2023-11-19T06:13:29;5.43;;;4.97;;
9661;SDS011;24982;52.344;12.990;2023-11-19T06:16:33;4.40;;;4.10;;
9661;SDS011;24982;52.344;12.990;2023-11-19T06:19:37;4.30;;;3.95;;
9661;SDS011;24982;52.344;12.990;2023-11-19T06:22:39;4.80;;;4.40;;
9661;SDS011;24982;52.344;12.990;2023-11-19T06:25:42;4.65;;;4.25;;
9661;SDS011;24982;52.344;12.990;2023-11-19T06:28:44;4.35;;;4.05;;
9661;SDS011;24982;52.344;12.990;2023-11-19T06:31:48;4.15;;;3.85;;
9661;SDS011;24982;52.344;12.990;2023-11-19T06:34:50;4.55;;;4.25;;
9661;SDS011;24982;52.344;12.990;2023-11-19T06:37:52;4.82;;;4.25;;
9661;SDS011;24982;52.344;12.990;2023-11-19T06:40:53;4.47;;;4.18;;
9661;SDS011;24982;52.344;12.990;2023-11-19T06:43:55;4.20;;;3.90;;
9661;SDS011;24982;52.344;12.990;2023-11-19T06:46:59;4.20;;;3.97;;
9661;SDS011;24982;52.344;12.990;2023-11-19T06:50:01;4.32;;;4.00;;
9661;SDS011;24982;52.344;12.990;2023-11-19T06:53:05;3.70;;;3.50;;
9661;SDS011;24982;52.344;12.990;2023-11-19T06:56:17;4.20;;;3.90;;
9661;SDS011;24982;52.344;12.990;2023-11-19T06:59:20;4.05;;;3.85;;
9661;SDS011;24982;52.344;12.990;2023-11-19T07:02:23;4.05;;;3.80;;
9661;SDS011;24982;52.344;12.990;2023-11-19T07:05:25;4.32;;;4.03;;
9661;SDS011;24982;52.344;12.990;2023-11-19T07:08:28;4.38;;;4.00;;
9661;SDS011;24982;52.344;12.990;2023-11-19T07:11:30;4.03;;;3.78;;
9661;SDS011;24982;52.344;12.990;2023-11-19T07:14:32;3.80;;;3.60;;
9661;SDS011;24982;52.344;12.990;2023-11-19T07:17:35;3.70;;;3.50;;
9661;SDS011;24982;52.344;12.990;2023-11-19T07:20:39;4.05;;;3.75;;
9661;SDS011;24982;52.344;12.990;2023-11-19T07:23:47;3.60;;;3.38;;
9661;SDS011;24982;52.344;12.990;2023-11-19T07:26:50;4.47;;;3.80;;
9661;SDS011;24982;52.344;12.990;2023-11-19T07:29:52;3.45;;;3.25;;
9661;SDS011;24982;52.344;12.990;2023-11-19T07:32:55;3.67;;;3.38;;
9661;SDS011;24982;52.344;12.990;2023-11-19T07:35:58;3.10;;;2.90;;
9661;SDS011;24982;52.344;12.990;2023-11-19T07:39:00;3.30;;;3.17;;
9661;SDS011;24982;52.344;12.990;2023-11-19T07:42:02;3.42;;;3.22;;
9661;SDS011;24982;52.344;12.990;2023-11-19T07:45:05;3.25;;;3.05;;
9661;SDS011;24982;52.344;12.990;2023-11-19T07:48:09;3.38;;;3.17;;
9661;SDS011;24982;52.344;12.990;2023-11-19T07:51:14;3.03;;;2.88;;
9661;SDS011;24982;52.344;12.990;2023-11-19T07:54:16;2.90;;;2.80;;
9661;SDS011;24982;52.344;12.990;2023-11-19T07:57:18;3.53;;;3.30;;
9661;SDS011;24982;52.344;12.990;2023-11-19T08:00:20;3.13;;;2.92;;
9661;SDS011;24982;52.344;12.990;2023-11-19T08:03:23;2.78;;;2.67;;
9661;SDS011;24982;52.344;12.990;2023-11-19T08:06:25;2.50;;;2.40;;
9661;SDS011;24982;52.344;12.990;2023-11-19T08:09:28;2.50;;;2.40;;
9661;SDS011;24982;52.344;12.990;2023-11-19T08:12:31;4.15;;;2.60;;
9661;SDS011;24982;52.344;12.990;2023-11-19T08:15:35;3.22;;;2.92;;
9661;SDS011;24982;52.344;12.990;2023-11-19T08:18:38;3.03;;;2.83;;
9661;SDS011;24982;52.344;12.990;2023-11-19T08:21:44;2.95;;;1.90;;
9661;SDS011;24982;52.344;12.990;2023-11-19T08:24:46;2.30;;;2.10;;
9661;SDS011;24982;52.344;12.990;2023-11-19T08:27:48;2.00;;;1.90;;
9661;SDS011;24982;52.344;12.990;2023-11-19T08:30:50;2.50;;;1.92;;
9661;SDS011;24982;52.344;12.990;2023-11-19T08:33:53;2.08;;;1.73;;
9661;SDS011;24982;52.344;12.990;2023-11-19T08:36:55;2.45;;;1.60;;
9661;SDS011;24982;52.344;12.990;2023-11-19T08:39:57;1.60;;;1.50;;
9661;SDS011;24982;52.344;12.990;2023-11-19T08:42:59;1.80;;;1.60;;
9661;SDS011;24982;52.344;12.990;2023-11-19T08:46:01;2.67;;;1.48;;
9661;SDS011;24982;52.344;12.990;2023-11-19T08:49:05;1.60;;;1.50;;
9661;SDS011;24982;52.344;12.990;2023-11-19T08:52:08;2.15;;;2.05;;
9661;SDS011;24982;52.344;12.990;2023-11-19T08:55:10;1.80;;;1.50;;
9661;SDS011;24982;52.344;12.990;2023-11-19T08:58:13;1.50;;;1.40;;
9661;SDS011;24982;52.344;12.990;2023-11-19T09:01:15;1.63;;;1.50;;
9661;SDS011;24982;52.344;12.990;2023-11-19T09:04:19;1.75;;;1.65;;
9661;SDS011;24982;52.344;12.990;2023-11-19T09:07:22;3.38;;;1.67;;
9661;SDS011;24982;52.344;12.990;2023-11-19T09:10:24;3.42;;;1.60;;
9661;SDS011;24982;52.344;12.990;2023-11-19T09:13:27;2.08;;;1.90;;
9661;SDS011;24982;52.344;12.990;2023-11-19T09:16:29;1.90;;;1.80;;
9661;SDS011;24982;52.344;12.990;2023-11-19T09:19:33;2.47;;;1.70;;
9661;SDS011;24982;52.344;12.990;2023-11-19T09:22:36;3.28;;;1.60;;
9661;SDS011;24982;52.344;12.990;2023-11-19T09:25:38;2.28;;;1.88;;
9661;SDS011;24982;52.344;12.990;2023-11-19T09:28:40;1.92;;;1.60;;
9661;SDS011;24982;52.344;12.990;2023-11-19T09:31:41;2.58;;;1.90;;
9661;SDS011;24982;52.344;12.990;2023-11-19T09:34:45;4.13;;;1.98;;
9661;SDS011;24982;52.344;12.990;2023-11-19T09:37:47;4.18;;;2.25;;
9661;SDS011;24982;52.344;12.990;2023-11-19T09:40:49;6.53;;;2.17;;
9661;SDS011;24982;52.344;12.990;2023-11-19T09:43:51;4.15;;;2.30;;
9661;SDS011;24982;52.344;12.990;2023-11-19T09:46:53;7.40;;;2.30;;
9661;SDS011;24982;52.344;12.990;2023-11-19T09:49:56;3.83;;;2.00;;
9661;SDS011;24982;52.344;12.990;2023-11-19T09:52:58;9.68;;;2.47;;
9661;SDS011;24982;52.344;12.990;2023-11-19T09:56:00;3.78;;;2.10;;
9661;SDS011;24982;52.344;12.990;2023-11-19T09:59:04;3.13;;;2.00;;
9661;SDS011;24982;52.344;12.990;2023-11-19T10:02:07;4.80;;;1.95;;
9661;SDS011;24982;52.344;12.990;2023-11-19T10:05:11;7.72;;;2.25;;
9661;SDS011;24982;52.344;12.990;2023-11-19T10:08:14;5.32;;;2.25;;
9661;SDS011;24982;52.344;12.990;2023-11-19T10:11:17;5.40;;;2.30;;
9661;SDS011;24982;52.344;12.990;2023-11-19T10:14:20;5.38;;;2.60;;
9661;SDS011;24982;52.344;12.990;2023-11-19T10:17:27;6.20;;;2.92;;
9661;SDS011;24982;52.344;12.990;2023-11-19T10:20:36;7.28;;;2.47;;
9661;SDS011;24982;52.344;12.990;2023-11-19T10:23:47;5.65;;;2.63;;
9661;SDS011;24982;52.344;12.990;2023-11-19T10:26:50;9.10;;;2.97;;
9661;SDS011;24982;52.344;12.990;2023-11-19T10:29:52;5.47;;;2.50;;
9661;SDS011;24982;52.344;12.990;2023-11-19T10:33:04;4.82;;;2.13;;
9661;SDS011;24982;52.344;12.990;2023-11-19T10:36:08;11.00;;;3.05;;
9661;SDS011;24982;52.344;12.990;2023-11-19T10:39:12;10.57;;;3.05;;
9661;SDS011;24982;52.344;12.990;2023-11-19T10:42:15;8.55;;;2.80;;
9661;SDS011;24982;52.344;12.990;2023-11-19T10:45:23;11.95;;;3.60;;
9661;SDS011;24982;52.344;12.990;2023-11-19T10:48:26;8.50;;;3.17;;
9661;SDS011;24982;52.344;12.990;2023-11-19T10:51:29;11.32;;;4.00;;
9661;SDS011;24982;52.344;12.990;2023-11-19T10:54:32;8.52;;;3.30;;
9661;SDS011;24982;52.344;12.990;2023-11-19T10:57:36;14.07;;;3.67;;
9661;SDS011;24982;52.344;12.990;2023-11-19T11:00:42;13.50;;;3.60;;
9661;SDS011;24982;52.344;12.990;2023-11-19T11:03:45;12.98;;;3.58;;
9661;SDS011;24982;52.344;12.990;2023-11-19T11:06:49;10.18;;;3.90;;
9661;SDS011;24982;52.344;12.990;2023-11-19T11:09:51;12.48;;;3.65;;
9661;SDS011;24982;52.344;12.990;2023-11-19T11:12:54;12.77;;;3.78;;
9661;SDS011;24982;52.344;12.990;2023-11-19T11:15:58;15.07;;;3.80;;
9661;SDS011;24982;52.344;12.990;2023-11-19T11:19:00;10.68;;;3.25;;
9661;SDS011;24982;52.344;12.990;2023-11-19T11:22:04;8.63;;;3.30;;
9661;SDS011;24982;52.344;12.990;2023-11-19T11:28:33;15.60;;;4.20;;
9661;SDS011;24982;52.344;12.990;2023-11-19T11:31:39;9.52;;;3.10;;
9661;SDS011;24982;52.344;12.990;2023-11-19T11:34:55;9.63;;;3.03;;
9661;SDS011;24982;52.344;12.990;2023-11-19T11:38:04;10.85;;;4.10;;
9661;SDS011;24982;52.344;12.990;2023-11-19T11:41:16;14.25;;;3.45;;
9661;SDS011;24982;52.344;12.990;2023-11-19T11:44:24;13.05;;;3.88;;
9661;SDS011;24982;52.344;12.990;2023-11-19T11:48:05;16.73;;;3.92;;
9661;SDS011;24982;52.344;12.990;2023-11-19T11:51:08;14.27;;;4.22;;
9661;SDS011;24982;52.344;12.990;2023-11-19T11:54:25;14.45;;;4.10;;
9661;SDS011;24982;52.344;12.990;2023-11-19T11:57:27;10.20;;;3.70;;
9661;SDS011;24982;52.344;12.990;2023-11-19T12:00:39;12.93;;;4.00;;
9661;SDS011;24982;52.344;12.990;2023-11-19T12:03:41;15.95;;;4.47;;
9661;SDS011;24982;52.344;12.990;2023-11-19T12:06:49;16.92;;;4.47;;
9661;SDS011;24982;52.344;12.990;2023-11-19T12:10:09;15.48;;;4.50;;
9661;SDS011;24982;52.344;12.990;2023-11-19T12:13:12;17.17;;;4.30;;
9661;SDS011;24982;52.344;12.990;2023-11-19T12:16:14;13.85;;;4.53;;
9661;SDS011;24982;52.344;12.990;2023-11-19T12:19:16;13.93;;;4.65;;
9661;SDS011;24982;52.344;12.990;2023-11-19T12:22:18;21.92;;;4.70;;
9661;SDS011;24982;52.344;12.990;2023-11-19T12:25:22;14.30;;;4.43;;
9661;SDS011;24982;52.344;12.990;2023-11-19T12:28:24;20.75;;;5.45;;
9661;SDS011;24982;52.344;12.990;2023-11-19T12:31:27;18.20;;;4.95;;
9661;SDS011;24982;52.344;12.990;2023-11-19T12:34:30;20.67;;;4.80;;
9661;SDS011;24982;52.344;12.990;2023-11-19T12:37:32;21.67;;;4.88;;
9661;SDS011;24982;52.344;12.990;2023-11-19T12:40:37;22.50;;;5.13;;
9661;SDS011;24982;52.344;12.990;2023-11-19T12:43:39;18.77;;;4.90;;
9661;SDS011;24982;52.344;12.990;2023-11-19T12:46:41;28.40;;;6.30;;
9661;SDS011;24982;52.344;12.990;2023-11-19T12:49:43;19.95;;;4.90;;
9661;SDS011;24982;52.344;12.990;2023-11-19T12:52:54;18.50;;;4.65;;
9661;SDS011;24982;52.344;12.990;2023-11-19T12:55:59;18.05;;;5.43;;
9661;SDS011;24982;52.344;12.990;2023-11-19T12:59:12;20.75;;;4.70;;
9661;SDS011;24982;52.344;12.990;2023-11-19T13:02:14;27.75;;;5.95;;
9661;SDS011;24982;52.344;12.990;2023-11-19T13:05:23;20.38;;;5.35;;
9661;SDS011;24982;52.344;12.990;2023-11-19T13:08:27;18.33;;;5.72;;
9661;SDS011;24982;52.344;12.990;2023-11-19T13:11:31;22.77;;;6.30;;
9661;SDS011;24982;52.344;12.990;2023-11-19T13:14:36;21.02;;;6.00;;
9661;SDS011;24982;52.344;12.990;2023-11-19T13:17:42;23.48;;;6.43;;
9661;SDS011;24982;52.344;12.990;2023-11-19T13:20:45;20.95;;;5.78;;
9661;SDS011;24982;52.344;12.990;2023-11-19T13:23:47;24.50;;;6.38;;
9661;SDS011;24982;52.344;12.990;2023-11-19T13:26:51;25.50;;;6.80;;
9661;SDS011;24982;52.344;12.990;2023-11-19T13:29:53;24.55;;;6.70;;
9661;SDS011;24982;52.344;12.990;2023-11-19T13:32:56;25.13;;;6.47;;
9661;SDS011;24982;52.344;12.990;2023-11-19T13:35:59;21.13;;;5.38;;
9661;SDS011;24982;52.344;12.990;2023-11-19T13:39:05;21.50;;;5.32;;
9661;SDS011;24982;52.344;12.990;2023-11-19T13:42:09;25.45;;;5.00;;
9661;SDS011;24982;52.344;12.990;2023-11-19T13:45:12;28.25;;;5.43;;
9661;SDS011;24982;52.344;12.990;2023-11-19T13:48:14;25.17;;;4.88;;
9661;SDS011;24982;52.344;12.990;2023-11-19T13:51:16;20.08;;;5.03;;
9661;SDS011;24982;52.344;12.990;2023-11-19T13:54:19;25.10;;;5.43;;
9661;SDS011;24982;52.344;12.990;2023-11-19T13:57:23;24.75;;;5.20;;
9661;SDS011;24982;52.344;12.990;2023-11-19T14:00:25;22.48;;;4.95;;
9661;SDS011;24982;52.344;12.990;2023-11-19T14:03:27;24.60;;;4.80;;
9661;SDS011;24982;52.344;12.990;2023-11-19T14:06:30;28.67;;;4.90;;
9661;SDS011;24982;52.344;12.990;2023-11-19T14:09:33;25.50;;;4.97;;
9661;SDS011;24982;52.344;12.990;2023-11-19T14:12:36;21.33;;;5.45;;
9661;SDS011;24982;52.344;12.990;2023-11-19T14:15:39;25.50;;;5.28;;
9661;SDS011;24982;52.344;12.990;2023-11-19T14:18:42;24.88;;;5.28;;
9661;SDS011;24982;52.344;12.990;2023-11-19T14:21:44;29.52;;;5.80;;
9661;SDS011;24982;52.344;12.990;2023-11-19T14:24:47;27.02;;;4.97;;
9661;SDS011;24982;52.344;12.990;2023-11-19T14:27:51;18.10;;;4.55;;
9661;SDS011;24982;52.344;12.990;2023-11-19T14:30:53;25.02;;;5.13;;
9661;SDS011;24982;52.344;12.990;2023-11-19T14:33:57;24.00;;;4.88;;
9661;SDS011;24982;52.344;12.990;2023-11-19T14:36:59;15.57;;;4.13;;
9661;SDS011;24982;52.344;12.990;2023-11-19T14:40:01;20.48;;;4.40;;
9661;SDS011;24982;52.344;12.990;2023-11-19T14:43:07;25.20;;;4.70;;
9661;SDS011;24982;52.344;12.990;2023-11-19T14:46:10;19.45;;;5.00;;
9661;SDS011;24982;52.344;12.990;2023-11-19T14:49:12;17.50;;;4.70;;
9661;SDS011;24982;52.344;12.990;2023-11-19T14:52:15;20.05;;;4.43;;
9661;SDS011;24982;52.344;12.990;2023-11-19T14:55:17;19.33;;;3.92;;
9661;SDS011;24982;52.344;12.990;2023-11-19T14:58:21;21.55;;;4.55;;
9661;SDS011;24982;52.344;12.990;2023-11-19T15:01:23;20.75;;;5.03;;
9661;SDS011;24982;52.344;12.990;2023-11-19T15:04:25;19.02;;;4.50;;
9661;SDS011;24982;52.344;12.990;2023-11-19T15:07:28;24.88;;;5.07;;
9661;SDS011;24982;52.344;12.990;2023-11-19T15:10:30;16.40;;;4.28;;
9661;SDS011;24982;52.344;12.990;2023-11-19T15:13:33;21.50;;;5.40;;
9661;SDS011;24982;52.344;12.990;2023-11-19T15:16:37;22.33;;;5.28;;
9661;SDS011;24982;52.344;12.990;2023-11-19T15:19:39;20.10;;;4.85;;
9661;SDS011;24982;52.344;12.990;2023-11-19T15:22:42;19.92;;;4.57;;
9661;SDS011;24982;52.344;12.990;2023-11-19T15:25:45;15.43;;;4.70;;
9661;SDS011;24982;52.344;12.990;2023-11-19T15:28:48;16.17;;;5.15;;
9661;SDS011;24982;52.344;12.990;2023-11-19T15:31:50;20.58;;;4.93;;
9661;SDS011;24982;52.344;12.990;2023-11-19T15:34:53;19.02;;;4.72;;
9661;SDS011;24982;52.344;12.990;2023-11-19T15:37:55;24.25;;;5.07;;
9661;SDS011;24982;52.344;12.990;2023-11-19T15:40:57;22.17;;;4.47;;
9661;SDS011;24982;52.344;12.990;2023-11-19T15:44:01;18.40;;;4.93;;
9661;SDS011;24982;52.344;12.990;2023-11-19T15:47:04;16.98;;;4.65;;
9661;SDS011;24982;52.344;12.990;2023-11-19T15:50:07;20.00;;;4.65;;
9661;SDS011;24982;52.344;12.990;2023-11-19T15:53:11;22.23;;;5.15;;
9661;SDS011;24982;52.344;12.990;2023-11-19T15:56:13;19.13;;;4.68;;
9661;SDS011;24982;52.344;12.990;2023-11-19T15:59:16;17.83;;;4.90;;
9661;SDS011;24982;52.344;12.990;2023-11-19T16:02:19;17.15;;;5.15;;
9661;SDS011;24982;52.344;12.990;2023-11-19T16:05:21;23.95;;;5.65;;
9661;SDS011;24982;52.344;12.990;2023-11-19T16:08:23;16.80;;;4.88;;
9661;SDS011;24982;52.344;12.990;2023-11-19T16:11:26;19.77;;;5.28;;
9661;SDS011;24982;52.344;12.990;2023-11-19T16:14:30;19.73;;;5.03;;
9661;SDS011;24982;52.344;12.990;2023-11-19T16:17:32;20.67;;;4.95;;
9661;SDS011;24982;52.344;12.990;2023-11-19T16:20:35;23.25;;;5.88;;
9661;SDS011;24982;52.344;12.990;2023-11-19T16:23:37;22.63;;;5.72;;
9661;SDS011;24982;52.344;12.990;2023-11-19T16:26:39;19.67;;;5.30;;
9661;SDS011;24982;52.344;12.990;2023-11-19T16:29:43;20.75;;;5.55;;
9661;SDS011;24982;52.344;12.990;2023-11-19T16:32:50;25.10;;;6.15;;
9661;SDS011;24982;52.344;12.990;2023-11-19T16:35:55;21.83;;;6.82;;
9661;SDS011;24982;52.344;12.990;2023-11-19T16:38:58;21.75;;;5.60;;
9661;SDS011;24982;52.344;12.990;2023-11-19T16:42:00;23.02;;;6.03;;
9661;SDS011;24982;52.344;12.990;2023-11-19T16:45:04;22.50;;;5.50;;
9661;SDS011;24982;52.344;12.990;2023-11-19T16:48:07;17.65;;;4.93;;
9661;SDS011;24982;52.344;12.990;2023-11-19T16:51:10;27.17;;;5.53;;
9661;SDS011;24982;52.344;12.990;2023-11-19T16:54:14;25.55;;;5.80;;
9661;SDS011;24982;52.344;12.990;2023-11-19T16:57:16;21.52;;;5.43;;
9661;SDS011;24982;52.344;12.990;2023-11-19T17:00:22;16.90;;;5.40;;
9661;SDS011;24982;52.344;12.990;2023-11-19T17:03:25;24.25;;;5.57;;
9661;SDS011;24982;52.344;12.990;2023-11-19T17:06:28;22.45;;;5.10;;
9661;SDS011;24982;52.344;12.990;2023-11-19T17:09:30;19.13;;;5.38;;
9661;SDS011;24982;52.344;12.990;2023-11-19T17:12:32;20.10;;;5.25;;
9661;SDS011;24982;52.344;12.990;2023-11-19T17:15:36;22.35;;;5.60;;
9661;SDS011;24982;52.344;12.990;2023-11-19T17:18:38;23.27;;;4.72;;
9661;SDS011;24982;52.344;12.990;2023-11-19T17:21:41;18.08;;;5.38;;
9661;SDS011;24982;52.344;12.990;2023-11-19T17:24:44;20.52;;;5.15;;
9661;SDS011;24982;52.344;12.990;2023-11-19T17:27:46;23.63;;;5.20;;
9661;SDS011;24982;52.344;12.990;2023-11-19T17:30:50;24.85;;;5.25;;
9661;SDS011;24982;52.344;12.990;2023-11-19T17:33:52;17.27;;;4.65;;
9661;SDS011;24982;52.344;12.990;2023-11-19T17:36:54;18.92;;;5.18;;
9661;SDS011;24982;52.344;12.990;2023-11-19T17:39:56;20.35;;;5.10;;
9661;SDS011;24982;52.344;12.990;2023-11-19T17:42:59;24.48;;;5.30;;
9661;SDS011;24982;52.344;12.990;2023-11-19T17:46:02;23.63;;;4.95;;
9661;SDS011;24982;52.344;12.990;2023-11-19T17:49:06;21.23;;;5.18;;
9661;SDS011;24982;52.344;12.990;2023-11-19T17:52:09;19.48;;;4.72;;
9661;SDS011;24982;52.344;12.990;2023-11-19T17:55:12;19.55;;;5.90;;
9661;SDS011;24982;52.344;12.990;2023-11-19T17:58:14;21.45;;;4.65;;
9661;SDS011;24982;52.344;12.990;2023-11-19T18:01:17;16.08;;;4.78;;
9661;SDS011;24982;52.344;12.990;2023-11-19T18:04:22;19.17;;;5.10;;
9661;SDS011;24982;52.344;12.990;2023-11-19T18:07:25;24.45;;;5.60;;
9661;SDS011;24982;52.344;12.990;2023-11-19T18:10:28;19.70;;;5.07;;
9661;SDS011;24982;52.344;12.990;2023-11-19T18:13:30;18.80;;;4.70;;
9661;SDS011;24982;52.344;12.990;2023-11-19T18:16:35;20.00;;;4.88;;
9661;SDS011;24982;52.344;12.990;2023-11-19T18:19:37;23.10;;;4.40;;
9661;SDS011;24982;52.344;12.990;2023-11-19T18:22:40;18.50;;;4.63;;